Time;durP1;ratioP1;P1;durP2;ratioP2;P2;SDS_P1;SDS_P2;PMS_P1;PMS_P2;Temp;Humidity;BMP_temperature;BMP_pressure;BME280_temperature;BME280_humidity;BME280_pressure;Samples;Min_cycle;Max_cycle;Signal;HPM_P1;HPM_P2
2022/02/15 00:00:30;;;;;;;;;;;16.10;35.30;;;;;;8335766;28;20270;-51
2022/02/15 00:04:30;;;;;;;;;;;16.10;35.30;;;;;;8335011;28;19956;-53
2022/02/15 00:08:31;;;;;;;;;;;16.10;35.20;;;;;;8333887;28;20432;-48
2022/02/15 00:12:31;;;;;;;;;;;16.10;35.20;;;;;;8335262;28;20349;-55
2022/02/15 00:16:32;;;;;;;;;;;16.10;35.20;;;;;;8334480;28;19953;-51
2022/02/15 00:20:32;;;;;;;;;;;16.10;35.20;;;;;;8334862;28;19925;-52
2022/02/15 00:24:33;;;;;;;;;;;16.10;35.30;;;;;;8334668;28;19917;-49
2022/02/15 00:28:33;;;;;;;;;;;16.10;35.20;;;;;;8334212;28;20347;-50
2022/02/15 00:32:33;;;;;;;;;;;16.10;35.20;;;;;;8335212;28;19971;-53
2022/02/15 00:36:34;;;;;;;;;;;16.10;35.20;;;;;;8334296;28;19924;-55
2022/02/15 00:40:34;;;;;;;;;;;16.10;35.20;;;;;;8333867;28;19928;-54
2022/02/15 00:44:35;;;;;;;;;;;16.10;35.20;;;;;;8334339;28;20369;-53
2022/02/15 00:48:35;;;;;;;;;;;16.10;35.20;;;;;;8333866;28;19933;-52
2022/02/15 00:52:36;;;;;;;;;;;16.10;35.20;;;;;;8333319;28;20337;-55
2022/02/15 00:56:36;;;;;;;;;;;16.10;35.20;;;;;;8333646;28;20362;-52
2022/02/15 01:00:37;;;;;;;;;;;16.10;35.30;;;;;;8333509;28;19932;-54
2022/02/15 01:04:37;;;;;;;;;;;16.10;35.20;;;;;;8333006;28;19917;-50
2022/02/15 01:08:39;;;;;;;;;;;16.10;35.20;;;;;;8332145;28;19917;-51
2022/02/15 01:12:39;;;;;;;;;;;16.10;35.20;;;;;;8333210;28;19914;-53
2022/02/15 01:16:40;;;;;;;;;;;16.10;35.20;;;;;;8332527;28;20302;-54
2022/02/15 01:20:40;;;;;;;;;;;16.10;35.30;;;;;;8333072;28;19929;-54
2022/02/15 01:24:41;;;;;;;;;;;16.10;35.20;;;;;;8332923;28;19944;-55
2022/02/15 01:28:41;;;;;;;;;;;16.10;35.30;;;;;;8332583;28;20355;-54
2022/02/15 01:32:42;;;;;;;;;;;16.10;35.20;;;;;;8332592;28;20263;-51
2022/02/15 01:36:42;;;;;;;;;;;16.10;35.30;;;;;;8332282;28;20256;-53
2022/02/15 01:40:43;;;;;;;;;;;16.10;35.30;;;;;;8332045;28;19925;-54
2022/02/15 01:44:43;;;;;;;;;;;16.10;35.30;;;;;;8332377;28;19917;-53
2022/02/15 01:48:47;;;;;;;;;;;16.10;35.30;;;;;;8332137;28;19913;-51
2022/02/15 01:52:47;;;;;;;;;;;16.10;35.30;;;;;;8331874;28;19925;-48
2022/02/15 01:56:47;;;;;;;;;;;16.10;35.30;;;;;;8331007;28;19937;-49
2022/02/15 02:00:48;;;;;;;;;;;16.10;35.30;;;;;;8331877;28;19931;-54
2022/02/15 02:09:08;;;;;;;;;;;16.10;35.30;;;;;;8337299;28;19994;-52
2022/02/15 02:13:08;;;;;;;;;;;16.10;35.30;;;;;;8329936;28;19914;-54
2022/02/15 02:17:09;;;;;;;;;;;16.00;35.20;;;;;;8330801;28;19948;-54
2022/02/15 02:21:09;;;;;;;;;;;16.10;35.30;;;;;;8331621;28;20047;-53
2022/02/15 02:25:11;;;;;;;;;;;16.10;35.30;;;;;;8330995;28;19917;-54
2022/02/15 02:29:11;;;;;;;;;;;16.10;35.30;;;;;;8330486;28;20011;-55
2022/02/15 02:33:12;;;;;;;;;;;16.10;35.30;;;;;;8330718;28;19971;-55
2022/02/15 02:37:13;;;;;;;;;;;16.10;35.30;;;;;;8330847;28;20055;-53
2022/02/15 02:41:13;;;;;;;;;;;16.10;35.30;;;;;;8330209;28;19921;-54
2022/02/15 02:45:16;;;;;;;;;;;16.10;35.30;;;;;;8330811;28;19918;-52
2022/02/15 02:49:16;;;;;;;;;;;16.10;35.30;;;;;;8330308;28;19921;-55
2022/02/15 02:53:17;;;;;;;;;;;16.10;35.30;;;;;;8330342;28;19921;-54
2022/02/15 02:57:17;;;;;;;;;;;16.10;35.30;;;;;;8330639;28;19913;-54
2022/02/15 03:01:18;;;;;;;;;;;16.10;35.40;;;;;;8330043;28;19980;-53
2022/02/15 03:05:18;;;;;;;;;;;16.10;35.30;;;;;;8330022;28;19924;-52
2022/02/15 03:09:19;;;;;;;;;;;16.10;35.30;;;;;;8330082;28;20302;-51
2022/02/15 03:13:20;;;;;;;;;;;16.10;35.30;;;;;;8329581;28;20070;-54
2022/02/15 03:17:20;;;;;;;;;;;16.10;35.90;;;;;;8330177;28;19920;-51
2022/02/15 03:21:21;;;;;;;;;;;16.10;35.30;;;;;;8331457;28;19929;-51
2022/02/15 03:25:21;;;;;;;;;;;16.10;35.30;;;;;;8336223;28;20378;-51
2022/02/15 03:29:22;;;;;;;;;;;16.10;35.30;;;;;;8336301;28;20362;-51
2022/02/15 03:33:22;;;;;;;;;;;16.10;35.30;;;;;;8336313;28;19917;-54
2022/02/15 03:37:23;;;;;;;;;;;16.10;35.40;;;;;;8336031;28;19917;-54
2022/02/15 03:45:42;;;;;;;;;;;16.10;35.30;;;;;;8336267;28;19924;-50
2022/02/15 03:49:43;;;;;;;;;;;16.10;35.30;;;;;;8335383;28;19918;-54
2022/02/15 03:53:44;;;;;;;;;;;16.10;35.40;;;;;;8335792;28;19928;-51
2022/02/15 03:57:44;;;;;;;;;;;16.10;35.30;;;;;;8335711;28;19913;-54
2022/02/15 04:01:45;;;;;;;;;;;16.10;35.40;;;;;;8335357;28;19923;-53
2022/02/15 04:05:45;;;;;;;;;;;16.10;35.40;;;;;;8335321;28;20393;-53
2022/02/15 04:09:46;;;;;;;;;;;16.10;35.40;;;;;;8335503;28;20000;-51
2022/02/15 04:13:46;;;;;;;;;;;16.10;35.40;;;;;;8334832;28;19917;-52
2022/02/15 04:17:47;;;;;;;;;;;16.00;35.40;;;;;;8335001;28;19917;-53
2022/02/15 04:21:47;;;;;;;;;;;16.10;35.50;;;;;;8335302;28;19929;-53
2022/02/15 04:25:48;;;;;;;;;;;16.00;35.40;;;;;;8334067;28;19978;-53
2022/02/15 04:29:48;;;;;;;;;;;16.10;35.50;;;;;;8334528;28;19917;-51
2022/02/15 04:33:49;;;;;;;;;;;16.10;35.50;;;;;;8332521;28;19939;-51
2022/02/15 04:37:49;;;;;;;;;;;16.10;35.60;;;;;;8333887;28;19913;-50
2022/02/15 04:41:50;;;;;;;;;;;16.10;35.60;;;;;;8333234;28;19917;-54
2022/02/15 04:45:51;;;;;;;;;;;16.00;35.50;;;;;;8334122;28;19921;-55
2022/02/15 04:49:51;;;;;;;;;;;16.10;35.50;;;;;;8333716;28;20615;-55
2022/02/15 04:53:52;;;;;;;;;;;16.10;35.50;;;;;;8333853;28;19925;-53
2022/02/15 04:57:52;;;;;;;;;;;16.10;35.50;;;;;;8334060;28;19948;-52
2022/02/15 05:01:53;;;;;;;;;;;16.10;35.50;;;;;;8333033;28;19948;-49
2022/02/15 05:05:54;;;;;;;;;;;16.10;35.50;;;;;;8333407;28;20289;-50
2022/02/15 05:09:55;;;;;;;;;;;16.10;35.50;;;;;;8315931;28;19921;-51
2022/02/15 05:13:56;;;;;;;;;;;16.10;35.50;;;;;;8332972;28;19921;-49
2022/02/15 05:17:56;;;;;;;;;;;16.10;35.50;;;;;;8333204;28;20366;-50
2022/02/15 05:21:57;;;;;;;;;;;16.10;35.60;;;;;;8332828;28;19975;-52
2022/02/15 05:25:57;;;;;;;;;;;16.10;35.50;;;;;;8329662;28;19917;-54
2022/02/15 05:29:58;;;;;;;;;;;16.10;35.50;;;;;;8332933;28;19960;-51
2022/02/15 05:33:58;;;;;;;;;;;16.10;35.50;;;;;;8332712;28;19917;-52
2022/02/15 05:37:59;;;;;;;;;;;16.10;35.60;;;;;;8332316;28;19914;-51
2022/02/15 05:41:59;;;;;;;;;;;16.10;35.50;;;;;;8332430;28;19917;-53
2022/02/15 05:46:00;;;;;;;;;;;16.10;35.60;;;;;;8331308;28;19963;-52
2022/02/15 05:54:19;;;;;;;;;;;16.10;35.60;;;;;;8332389;28;20301;-52
2022/02/15 05:58:20;;;;;;;;;;;16.10;35.60;;;;;;8331301;28;19921;-52
2022/02/15 06:02:21;;;;;;;;;;;16.10;35.60;;;;;;8331946;28;20270;-53
2022/02/15 06:06:21;;;;;;;;;;;16.10;35.60;;;;;;8331716;28;19949;-54
2022/02/15 06:10:21;;;;;;;;;;;16.10;35.60;;;;;;8331026;28;19921;-54
2022/02/15 06:14:22;;;;;;;;;;;16.10;36.10;;;;;;8331441;28;19921;-50
2022/02/15 06:18:22;;;;;;;;;;;16.10;35.60;;;;;;8331697;28;20014;-51
2022/02/15 06:22:23;;;;;;;;;;;16.10;35.70;;;;;;8330692;28;19924;-50
2022/02/15 06:26:23;;;;;;;;;;;16.10;35.70;;;;;;8330769;28;19917;-52
2022/02/15 06:30:24;;;;;;;;;;;16.10;35.70;;;;;;8330822;28;20338;-50
2022/02/15 06:34:25;;;;;;;;;;;16.10;35.70;;;;;;8330640;28;20350;-50
2022/02/15 06:38:25;;;;;;;;;;;16.10;35.70;;;;;;8331110;28;20393;-49
2022/02/15 06:42:26;;;;;;;;;;;16.10;35.70;;;;;;8330706;28;20016;-52
2022/02/15 06:46:27;;;;;;;;;;;16.10;35.70;;;;;;8330256;28;19924;-52
2022/02/15 06:50:27;;;;;;;;;;;16.10;35.80;;;;;;8330519;28;19944;-50
2022/02/15 06:54:28;;;;;;;;;;;16.10;35.70;;;;;;8329398;28;20438;-51
2022/02/15 06:58:28;;;;;;;;;;;16.10;35.80;;;;;;8329592;28;19964;-53
2022/02/15 07:02:29;;;;;;;;;;;16.10;35.80;;;;;;8330395;28;20267;-51
2022/02/15 07:06:29;;;;;;;;;;;16.10;35.80;;;;;;8330252;28;20378;-54
2022/02/15 07:10:31;;;;;;;;;;;16.10;35.80;;;;;;8329589;28;20003;-54
2022/02/15 07:14:32;;;;;;;;;;;16.10;35.70;;;;;;8330351;28;20357;-53
2022/02/15 07:18:32;;;;;;;;;;;16.10;35.80;;;;;;8330163;28;19975;-52
2022/02/15 07:22:33;;;;;;;;;;;16.10;35.80;;;;;;8329711;28;19917;-54
2022/02/15 07:26:34;;;;;;;;;;;16.10;35.80;;;;;;8329944;28;20296;-55
2022/02/15 07:30:35;;;;;;;;;;;16.10;35.80;;;;;;8329627;28;19924;-51
2022/02/15 07:34:36;;;;;;;;;;;16.10;35.80;;;;;;8329142;28;19918;-52
2022/02/15 07:38:36;;;;;;;;;;;16.10;35.80;;;;;;8329789;28;20062;-53
2022/02/15 07:42:37;;;;;;;;;;;16.10;35.80;;;;;;8329665;28;19924;-50
2022/02/15 07:46:37;;;;;;;;;;;16.10;35.80;;;;;;8329198;28;19920;-54
2022/02/15 07:50:40;;;;;;;;;;;16.10;35.80;;;;;;8329567;28;19963;-52
2022/02/15 07:54:40;;;;;;;;;;;16.10;35.80;;;;;;8329561;28;19948;-52
2022/02/15 07:58:41;;;;;;;;;;;16.10;35.80;;;;;;8329037;28;20037;-53
2022/02/15 08:02:41;;;;;;;;;;;16.10;35.80;;;;;;8322545;28;19983;-53
2022/02/15 08:06:42;;;;;;;;;;;16.10;35.80;;;;;;8317277;28;19928;-52
2022/02/15 08:10:43;;;;;;;;;;;16.10;35.80;;;;;;8333420;28;19917;-53
2022/02/15 08:14:44;;;;;;;;;;;16.10;35.90;;;;;;8334992;28;20381;-51
2022/02/15 08:18:45;;;;;;;;;;;16.10;35.90;;;;;;8335119;28;19928;-54
2022/02/15 08:22:45;;;;;;;;;;;16.10;35.90;;;;;;8334358;28;19917;-55
2022/02/15 08:26:46;;;;;;;;;;;16.20;35.90;;;;;;8334958;28;19987;-51
2022/02/15 08:30:47;;;;;;;;;;;16.20;35.90;;;;;;8334814;28;19918;-50
2022/02/15 08:34:48;;;;;;;;;;;16.20;35.90;;;;;;8334143;28;19921;-53
2022/02/15 08:38:48;;;;;;;;;;;16.20;36.00;;;;;;8334706;28;20323;-53
2022/02/15 08:42:49;;;;;;;;;;;16.20;36.00;;;;;;8334438;28;19956;-50
2022/02/15 08:46:52;;;;;;;;;;;16.20;36.00;;;;;;8333569;28;20327;-50
2022/02/15 08:50:52;;;;;;;;;;;16.20;36.00;;;;;;8332596;28;19975;-51
2022/02/15 08:54:54;;;;;;;;;;;16.20;35.90;;;;;;8333891;28;19922;-52
2022/02/15 08:58:54;;;;;;;;;;;16.20;36.00;;;;;;8333513;28;19925;-54
2022/02/15 09:02:55;;;;;;;;;;;16.20;36.00;;;;;;8333398;28;20325;-52
2022/02/15 09:06:55;;;;;;;;;;;16.20;36.00;;;;;;8333552;28;19963;-52
2022/02/15 09:10:56;;;;;;;;;;;16.20;36.00;;;;;;8332777;28;19917;-52
2022/02/15 09:14:56;;;;;;;;;;;16.20;36.00;;;;;;8333278;28;20308;-52
2022/02/15 09:18:57;;;;;;;;;;;16.30;36.00;;;;;;8333199;28;20345;-51
2022/02/15 09:22:57;;;;;;;;;;;16.20;36.00;;;;;;8332668;28;19917;-51
2022/02/15 09:26:58;;;;;;;;;;;16.20;35.90;;;;;;8333021;28;19924;-52
2022/02/15 09:30:58;;;;;;;;;;;16.20;36.00;;;;;;8332894;28;20016;-54
2022/02/15 09:34:59;;;;;;;;;;;16.30;36.00;;;;;;8332143;28;19914;-53
2022/02/15 09:38:59;;;;;;;;;;;16.30;36.00;;;;;;8332443;28;19921;-51
2022/02/15 09:43:00;;;;;;;;;;;16.30;36.00;;;;;;8332404;28;19921;-52
2022/02/15 09:47:00;;;;;;;;;;;16.30;36.00;;;;;;8331636;28;19918;-50
2022/02/15 09:51:01;;;;;;;;;;;16.30;36.00;;;;;;8331988;28;20000;-49
2022/02/15 09:55:02;;;;;;;;;;;16.30;36.00;;;;;;8331865;28;19921;-54
2022/02/15 09:59:02;;;;;;;;;;;16.30;36.00;;;;;;8331550;28;19937;-54
2022/02/15 10:03:03;;;;;;;;;;;16.30;36.00;;;;;;8331689;28;20004;-54
2022/02/15 10:07:05;;;;;;;;;;;16.30;36.00;;;;;;8331473;28;19984;-52
2022/02/15 10:11:09;;;;;;;;;;;16.30;36.00;;;;;;8330775;28;19949;-53
2022/02/15 10:15:10;;;;;;;;;;;16.30;36.00;;;;;;8331328;28;19913;-50
2022/02/15 10:19:11;;;;;;;;;;;16.40;36.10;;;;;;8331404;28;19921;-52
2022/02/15 10:23:29;;;;;;;;;;;16.30;36.00;;;;;;8330641;28;19917;-53
2022/02/15 10:27:34;;;;;;;;;;;16.40;36.10;;;;;;8329844;28;19917;-55
2022/02/15 10:31:38;;;;;;;;;;;16.40;36.10;;;;;;8329807;28;20012;-54
2022/02/15 10:35:40;;;;;;;;;;;16.40;36.10;;;;;;8330620;28;19917;-54
2022/02/15 10:39:42;;;;;;;;;;;16.40;36.10;;;;;;8330864;28;20342;-50
2022/02/15 10:43:45;;;;;;;;;;;16.40;36.20;;;;;;8330084;28;19918;-52
2022/02/15 10:47:46;;;;;;;;;;;16.40;36.10;;;;;;8330475;28;19917;-52
2022/02/15 10:51:47;;;;;;;;;;;16.40;36.10;;;;;;8330526;28;20382;-54
2022/02/15 10:55:48;;;;;;;;;;;16.50;36.20;;;;;;8329807;28;19928;-51
2022/02/15 10:59:50;;;;;;;;;;;16.50;36.20;;;;;;8330673;28;20235;-52
2022/02/15 11:03:51;;;;;;;;;;;16.50;36.20;;;;;;8330172;28;19925;-52
2022/02/15 11:07:52;;;;;;;;;;;16.50;36.20;;;;;;8329803;28;19924;-52
2022/02/15 11:12:11;;;;;;;;;;;16.50;36.20;;;;;;8318644;28;19975;-53
2022/02/15 11:16:13;;;;;;;;;;;16.50;36.20;;;;;;8330074;28;20008;-53
2022/02/15 11:20:16;;;;;;;;;;;16.50;36.20;;;;;;8329697;28;19970;-49
2022/02/15 11:24:16;;;;;;;;;;;16.50;36.30;;;;;;8330103;28;19918;-54
2022/02/15 11:28:19;;;;;;;;;;;16.50;36.20;;;;;;8329568;28;19924;-52
2022/02/15 11:32:21;;;;;;;;;;;16.50;36.20;;;;;;8329896;28;19921;-50
2022/02/15 11:36:25;;;;;;;;;;;16.50;36.20;;;;;;8329775;28;19971;-54
2022/02/15 11:40:32;;;;;;;;;;;16.50;36.20;;;;;;8329444;28;20400;-53
2022/02/15 11:44:34;;;;;;;;;;;16.60;36.20;;;;;;8340021;28;19928;-51
2022/02/15 11:48:37;;;;;;;;;;;16.60;36.20;;;;;;8336344;28;20366;-54
2022/02/15 11:52:38;;;;;;;;;;;16.60;36.10;;;;;;8335677;28;19979;-53
2022/02/15 11:56:38;;;;;;;;;;;16.60;36.10;;;;;;8335140;28;19913;-52
2022/02/15 12:00:40;;;;;;;;;;;16.60;36.10;;;;;;8335774;28;20317;-53
2022/02/15 12:04:49;;;;;;;;;;;16.60;36.10;;;;;;8334760;28;19928;-54
2022/02/15 12:08:56;;;;;;;;;;;16.60;36.10;;;;;;8335321;28;19959;-53
2022/02/15 12:12:57;;;;;;;;;;;16.60;36.10;;;;;;8335391;28;19913;-50
2022/02/15 12:16:58;;;;;;;;;;;16.70;36.20;;;;;;8334736;28;19964;-53
2022/02/15 12:21:00;;;;;;;;;;;16.70;36.20;;;;;;8334999;28;19995;-52
2022/02/15 12:25:00;;;;;;;;;;;16.70;36.20;;;;;;8335081;28;19918;-50
2022/02/15 12:29:01;;;;;;;;;;;16.70;36.10;;;;;;8334285;28;20405;-53
2022/02/15 12:33:08;;;;;;;;;;;16.70;36.10;;;;;;8334716;28;19963;-50
2022/02/15 12:37:15;;;;;;;;;;;16.70;36.10;;;;;;8334492;28;19920;-53
2022/02/15 12:41:17;;;;;;;;;;;16.70;36.10;;;;;;8334202;28;19967;-51
2022/02/15 12:45:17;;;;;;;;;;;16.70;36.10;;;;;;8334427;28;19920;-53
2022/02/15 12:49:17;;;;;;;;;;;16.70;36.10;;;;;;8333670;28;20336;-54
2022/02/15 12:53:18;;;;;;;;;;;16.80;36.10;;;;;;8332559;28;19928;-50
2022/02/15 12:57:20;;;;;;;;;;;16.80;36.00;;;;;;8333742;28;19923;-51
2022/02/15 13:01:20;;;;;;;;;;;16.80;36.10;;;;;;8333201;28;20011;-51
2022/02/15 13:05:29;;;;;;;;;;;16.80;36.00;;;;;;8334154;28;19975;-51
2022/02/15 13:09:30;;;;;;;;;;;16.80;36.00;;;;;;8333196;28;19928;-54
2022/02/15 13:13:30;;;;;;;;;;;16.80;36.00;;;;;;8332555;28;20043;-53
2022/02/15 13:18:01;;;;;;;;;;;16.80;36.00;;;;;;8341914;28;19917;-52
2022/02/15 13:22:12;;;;;;;;;;;16.80;36.00;;;;;;8357646;28;20440;-50
2022/02/15 13:26:13;;;;;;;;;;;16.90;36.00;;;;;;8332443;28;20011;-53
2022/02/15 13:30:31;;;;;;;;;;;16.80;35.90;;;;;;8332427;28;19917;-53
2022/02/15 13:34:37;;;;;;;;;;;16.90;35.90;;;;;;8332097;28;19913;-53
2022/02/15 13:38:38;;;;;;;;;;;16.80;35.90;;;;;;8332335;28;20011;-50
2022/02/15 13:42:38;;;;;;;;;;;16.90;35.90;;;;;;8332410;28;19936;-54
2022/02/15 13:46:40;;;;;;;;;;;16.90;35.90;;;;;;8331736;28;19917;-50
2022/02/15 13:50:40;;;;;;;;;;;16.90;35.90;;;;;;8332057;28;19917;-50
2022/02/15 13:54:41;;;;;;;;;;;17.00;35.90;;;;;;8331702;28;19929;-54
2022/02/15 13:58:41;;;;;;;;;;;17.00;35.90;;;;;;8331273;28;20342;-52
2022/02/15 14:02:43;;;;;;;;;;;17.00;35.80;;;;;;8330210;28;19917;-53
2022/02/15 14:06:43;;;;;;;;;;;17.00;35.90;;;;;;8324393;28;19922;-51
2022/02/15 14:10:45;;;;;;;;;;;17.00;35.80;;;;;;8318519;28;22300;-53
2022/02/15 14:14:46;;;;;;;;;;;17.00;35.80;;;;;;8330668;28;20290;-53
2022/02/15 14:18:46;;;;;;;;;;;17.00;35.80;;;;;;8331131;28;19921;-52
2022/02/15 14:22:47;;;;;;;;;;;17.00;35.80;;;;;;8353422;28;19921;-51
2022/02/15 14:26:47;;;;;;;;;;;17.00;35.80;;;;;;8351914;28;20341;-53
2022/02/15 14:30:49;;;;;;;;;;;17.00;35.70;;;;;;8324824;28;19924;-49
2022/02/15 14:34:51;;;;;;;;;;;17.00;35.70;;;;;;8346304;28;19920;-53
2022/02/15 14:38:51;;;;;;;;;;;17.00;35.70;;;;;;8329834;28;20360;-54
2022/02/15 14:42:52;;;;;;;;;;;17.00;35.70;;;;;;8332687;28;19917;-54
2022/02/15 14:46:52;;;;;;;;;;;17.00;35.70;;;;;;8347616;28;19925;-51
2022/02/15 14:50:54;;;;;;;;;;;17.00;35.70;;;;;;8329137;28;20008;-50
2022/02/15 14:54:55;;;;;;;;;;;17.00;36.20;;;;;;8323629;28;19925;-50
2022/02/15 14:58:55;;;;;;;;;;;17.00;35.70;;;;;;8340504;28;19971;-51
2022/02/15 15:02:58;;;;;;;;;;;17.00;35.70;;;;;;8360158;28;19939;-53
2022/02/15 15:06:58;;;;;;;;;;;17.00;35.70;;;;;;8352231;28;20289;-53
2022/02/15 15:10:58;;;;;;;;;;;17.00;35.70;;;;;;8314719;28;20000;-50
2022/02/15 15:15:00;;;;;;;;;;;17.00;35.70;;;;;;8324787;28;20441;-50
2022/02/15 15:19:01;;;;;;;;;;;17.00;35.70;;;;;;8331363;28;19968;-53
2022/02/15 15:23:02;;;;;;;;;;;17.00;35.70;;;;;;8335708;28;19939;-52
2022/02/15 15:27:02;;;;;;;;;;;17.00;35.70;;;;;;8337028;28;19957;-54
2022/02/15 15:31:03;;;;;;;;;;;17.00;35.70;;;;;;8336270;28;19997;-49
2022/02/15 15:35:03;;;;;;;;;;;17.00;35.70;;;;;;8336872;28;19917;-49
2022/02/15 15:39:04;;;;;;;;;;;17.00;35.70;;;;;;8336868;28;19932;-52
2022/02/15 15:43:05;;;;;;;;;;;17.00;35.70;;;;;;8336868;28;20328;-49
2022/02/15 15:47:07;;;;;;;;;;;17.00;35.60;;;;;;8335730;28;19923;-51
2022/02/15 15:51:08;;;;;;;;;;;17.00;35.70;;;;;;8336127;28;20297;-51
2022/02/15 15:55:09;;;;;;;;;;;17.00;35.70;;;;;;8335585;28;19927;-51
2022/02/15 15:59:09;;;;;;;;;;;17.00;35.70;;;;;;8334884;28;19925;-50
2022/02/15 16:03:11;;;;;;;;;;;17.00;35.70;;;;;;8335244;28;19917;-54
2022/02/15 16:07:12;;;;;;;;;;;17.00;35.70;;;;;;8335636;28;19920;-52
2022/02/15 16:11:12;;;;;;;;;;;17.00;35.70;;;;;;8334609;28;20370;-51
2022/02/15 16:15:13;;;;;;;;;;;17.00;35.70;;;;;;8334958;28;19921;-52
2022/02/15 16:19:14;;;;;;;;;;;17.00;35.70;;;;;;8334708;28;19925;-53
2022/02/15 16:23:14;;;;;;;;;;;17.00;35.70;;;;;;8334548;28;19917;-52
2022/02/15 16:27:15;;;;;;;;;;;17.00;35.70;;;;;;8335021;28;20392;-53
2022/02/15 16:31:24;;;;;;;;;;;17.00;35.80;;;;;;8332993;28;20000;-51
2022/02/15 16:35:25;;;;;;;;;;;17.00;35.70;;;;;;8334564;28;19918;-53
2022/02/15 16:39:26;;;;;;;;;;;17.00;35.70;;;;;;8334219;28;20348;-53
2022/02/15 16:43:31;;;;;;;;;;;17.00;35.70;;;;;;8333592;28;19956;-54
2022/02/15 16:47:32;;;;;;;;;;;17.00;35.70;;;;;;8334735;28;19959;-51
2022/02/15 16:51:32;;;;;;;;;;;17.00;35.70;;;;;;8334107;28;19921;-52
2022/02/15 16:55:33;;;;;;;;;;;17.00;35.70;;;;;;8333091;28;19925;-51
2022/02/15 16:59:33;;;;;;;;;;;17.00;35.70;;;;;;8333350;28;19925;-52
2022/02/15 17:03:34;;;;;;;;;;;16.90;35.60;;;;;;8333142;28;19924;-50
2022/02/15 17:07:35;;;;;;;;;;;17.00;35.70;;;;;;8333453;28;19921;-55
2022/02/15 17:11:35;;;;;;;;;;;16.90;35.60;;;;;;8332250;28;20043;-52
2022/02/15 17:15:35;;;;;;;;;;;17.00;36.20;;;;;;8333140;28;19957;-54
2022/02/15 17:19:36;;;;;;;;;;;17.00;35.70;;;;;;8332553;28;19925;-54
2022/02/15 17:23:36;;;;;;;;;;;17.00;35.70;;;;;;8333136;28;19939;-53
2022/02/15 17:27:37;;;;;;;;;;;16.90;35.60;;;;;;8332308;28;19913;-55
2022/02/15 17:31:38;;;;;;;;;;;17.00;35.70;;;;;;8332176;28;19920;-50
2022/02/15 17:35:39;;;;;;;;;;;16.90;35.70;;;;;;8332772;28;19917;-54
2022/02/15 17:39:39;;;;;;;;;;;16.90;35.60;;;;;;8332276;28;19925;-52
2022/02/15 17:43:40;;;;;;;;;;;16.90;35.60;;;;;;8331720;28;19924;-55
2022/02/15 17:47:40;;;;;;;;;;;16.90;35.60;;;;;;8332539;28;19913;-53
2022/02/15 17:51:41;;;;;;;;;;;16.90;35.60;;;;;;8331986;28;19964;-50
2022/02/15 17:55:41;;;;;;;;;;;16.90;35.60;;;;;;8331435;28;19917;-53
2022/02/15 17:59:42;;;;;;;;;;;16.90;35.60;;;;;;8332000;28;19925;-52
2022/02/15 18:03:42;;;;;;;;;;;16.90;35.60;;;;;;8331454;28;19928;-53
2022/02/15 18:07:43;;;;;;;;;;;16.90;35.60;;;;;;8331629;28;19972;-49
2022/02/15 18:11:45;;;;;;;;;;;16.90;35.60;;;;;;8331706;28;19924;-54
2022/02/15 18:15:46;;;;;;;;;;;16.90;35.60;;;;;;8331291;28;19917;-53
2022/02/15 18:19:47;;;;;;;;;;;16.90;35.60;;;;;;8330625;28;20392;-52
2022/02/15 18:23:48;;;;;;;;;;;16.90;35.60;;;;;;8330791;28;19928;-53
2022/02/15 18:27:48;;;;;;;;;;;16.90;35.60;;;;;;8331027;28;19920;-53
2022/02/15 18:32:04;;;;;;;;;;;16.90;35.60;;;;;;8330549;28;20331;-54
2022/02/15 18:36:05;;;;;;;;;;;16.90;35.60;;;;;;8330999;28;20241;-52
2022/02/15 18:40:06;;;;;;;;;;;16.90;35.60;;;;;;8330906;28;19932;-54
2022/02/15 18:44:06;;;;;;;;;;;16.90;35.50;;;;;;8330087;28;19917;-52
2022/02/15 18:48:07;;;;;;;;;;;16.90;35.50;;;;;;8331123;28;19913;-52
2022/02/15 18:52:08;;;;;;;;;;;16.90;35.60;;;;;;8329824;28;19921;-52
2022/02/15 18:56:09;;;;;;;;;;;16.90;35.50;;;;;;8329897;28;20011;-54
2022/02/15 19:00:12;;;;;;;;;;;16.90;35.50;;;;;;8330146;28;19971;-54
2022/02/15 19:04:12;;;;;;;;;;;16.90;35.50;;;;;;8330273;28;20285;-50
2022/02/15 19:08:13;;;;;;;;;;;16.90;35.50;;;;;;8329889;28;19964;-55
2022/02/15 19:12:13;;;;;;;;;;;16.90;35.50;;;;;;8329981;28;19917;-52
2022/02/15 19:16:14;;;;;;;;;;;16.80;35.40;;;;;;8330076;28;19920;-54
2022/02/15 19:20:15;;;;;;;;;;;16.90;35.50;;;;;;8329450;28;19979;-52
2022/02/15 19:24:16;;;;;;;;;;;16.90;35.50;;;;;;8330146;28;19921;-53
2022/02/15 19:28:21;;;;;;;;;;;16.90;35.50;;;;;;8329525;28;19913;-52
2022/02/15 19:32:22;;;;;;;;;;;16.90;35.50;;;;;;8329639;28;19917;-52
2022/02/15 19:36:22;;;;;;;;;;;16.90;35.40;;;;;;8329694;28;20351;-52
2022/02/15 19:40:23;;;;;;;;;;;16.90;35.40;;;;;;8329369;28;20056;-54
2022/02/15 19:44:23;;;;;;;;;;;16.90;35.50;;;;;;8329374;28;19917;-51
2022/02/15 19:48:25;;;;;;;;;;;16.90;35.50;;;;;;8329744;28;19913;-53
2022/02/15 19:52:26;;;;;;;;;;;16.90;35.50;;;;;;8329149;28;20366;-54
2022/02/15 19:56:26;;;;;;;;;;;16.80;35.40;;;;;;8329303;28;19943;-53
2022/02/15 20:00:26;;;;;;;;;;;16.90;35.50;;;;;;8329105;28;19925;-51
2022/02/15 20:04:27;;;;;;;;;;;16.80;35.40;;;;;;8321163;28;19917;-51
2022/02/15 20:08:27;;;;;;;;;;;16.80;35.40;;;;;;8335849;28;20397;-49
2022/02/15 20:12:28;;;;;;;;;;;16.80;35.40;;;;;;8335204;28;19945;-55
2022/02/15 20:16:29;;;;;;;;;;;16.80;35.30;;;;;;8334722;28;19917;-53
2022/02/15 20:20:29;;;;;;;;;;;16.80;35.30;;;;;;8335115;28;19979;-54
2022/02/15 20:24:30;;;;;;;;;;;16.80;35.30;;;;;;8335010;28;20004;-53
2022/02/15 20:28:32;;;;;;;;;;;16.90;35.30;;;;;;8334676;28;20365;-53
2022/02/15 20:32:32;;;;;;;;;;;16.80;35.30;;;;;;8334560;28;19917;-52
2022/02/15 20:36:33;;;;;;;;;;;16.80;35.30;;;;;;8334573;28;19967;-52
2022/02/15 20:40:33;;;;;;;;;;;16.80;35.30;;;;;;8332555;28;20032;-53
2022/02/15 20:44:34;;;;;;;;;;;16.80;35.30;;;;;;8334154;28;19932;-52
2022/02/15 20:48:34;;;;;;;;;;;16.80;35.30;;;;;;8334292;28;19913;-53
2022/02/15 20:52:36;;;;;;;;;;;16.80;35.30;;;;;;8333375;28;19995;-53
2022/02/15 20:56:37;;;;;;;;;;;16.80;35.30;;;;;;8334205;28;20374;-53
2022/02/15 21:00:38;;;;;;;;;;;16.80;35.30;;;;;;8333593;28;19921;-52
2022/02/15 21:04:38;;;;;;;;;;;16.80;35.30;;;;;;8333107;28;19921;-53
2022/02/15 21:08:39;;;;;;;;;;;16.80;35.30;;;;;;8333662;28;19975;-55
2022/02/15 21:12:44;;;;;;;;;;;16.80;35.30;;;;;;8333501;28;19921;-54
2022/02/15 21:16:44;;;;;;;;;;;16.80;35.20;;;;;;8331060;28;19917;-53
2022/02/15 21:20:45;;;;;;;;;;;16.80;35.20;;;;;;8333050;28;19925;-52
2022/02/15 21:24:46;;;;;;;;;;;16.80;35.70;;;;;;8333184;28;20007;-55
2022/02/15 21:28:46;;;;;;;;;;;16.80;35.20;;;;;;8332618;28;19971;-52
2022/02/15 21:32:46;;;;;;;;;;;16.70;35.10;;;;;;8332743;28;19917;-54
2022/02/15 21:36:47;;;;;;;;;;;16.80;35.20;;;;;;8332512;28;20397;-54
2022/02/15 21:40:47;;;;;;;;;;;16.70;35.10;;;;;;8331879;28;20345;-52
2022/02/15 21:44:48;;;;;;;;;;;16.70;35.10;;;;;;8332087;28;19917;-54
2022/02/15 21:48:48;;;;;;;;;;;16.70;35.10;;;;;;8332388;28;19917;-50
2022/02/15 21:52:49;;;;;;;;;;;16.70;35.10;;;;;;8331772;28;20442;-53
2022/02/15 21:56:49;;;;;;;;;;;16.70;35.10;;;;;;8331922;28;19917;-53
2022/02/15 22:00:50;;;;;;;;;;;16.70;35.00;;;;;;8331686;28;19925;-53
2022/02/15 22:04:51;;;;;;;;;;;16.70;35.00;;;;;;8331229;28;19959;-53
2022/02/15 22:08:51;;;;;;;;;;;16.70;35.00;;;;;;8331968;28;19921;-54
2022/02/15 22:12:52;;;;;;;;;;;16.70;35.00;;;;;;8331456;28;19925;-54
2022/02/15 22:16:52;;;;;;;;;;;16.60;35.00;;;;;;8330939;28;20460;-53
2022/02/15 22:20:53;;;;;;;;;;;16.60;35.00;;;;;;8331502;28;20403;-50
2022/02/15 22:24:54;;;;;;;;;;;16.60;34.90;;;;;;8331377;28;19921;-54
2022/02/15 22:28:54;;;;;;;;;;;16.60;35.00;;;;;;8329825;28;19917;-53
2022/02/15 22:32:55;;;;;;;;;;;16.60;34.90;;;;;;8331102;28;19928;-53
2022/02/15 22:36:55;;;;;;;;;;;16.60;34.90;;;;;;8330632;28;20424;-53
2022/02/15 22:40:56;;;;;;;;;;;16.60;34.90;;;;;;8330174;28;19929;-55
2022/02/15 22:44:56;;;;;;;;;;;16.60;34.90;;;;;;8330704;28;19920;-51
2022/02/15 22:53:16;;;;;;;;;;;16.60;34.90;;;;;;8330030;28;20051;-53
2022/02/15 22:57:16;;;;;;;;;;;16.50;34.80;;;;;;8330538;28;20319;-55
2022/02/15 23:01:17;;;;;;;;;;;16.50;34.90;;;;;;8328953;28;20016;-54
2022/02/15 23:18:15;;;;;;;;;;;16.50;34.80;;;;;;8335659;28;20428;-51
2022/02/15 23:22:15;;;;;;;;;;;16.50;34.80;;;;;;8329521;28;19956;-53
2022/02/15 23:26:16;;;;;;;;;;;16.50;34.80;;;;;;8329746;28;20289;-52
2022/02/15 23:30:17;;;;;;;;;;;16.50;34.80;;;;;;8330171;28;19917;-50
2022/02/15 23:34:17;;;;;;;;;;;16.50;34.90;;;;;;8329344;28;19917;-51
2022/02/15 23:38:18;;;;;;;;;;;16.50;34.90;;;;;;8331008;28;19917;-53
2022/02/15 23:42:18;;;;;;;;;;;16.50;34.80;;;;;;8336025;28;19941;-52
2022/02/15 23:46:19;;;;;;;;;;;16.50;34.90;;;;;;8335923;28;19963;-53
2022/02/15 23:50:19;;;;;;;;;;;16.50;34.90;;;;;;8336079;28;19956;-50